Norman Wells Airport

CYVQ | YVQ

Norman Wells , Northwest Territories , Canada

Sunday, June 7th, 2020 | 00:13

Weather

CYVQ 070600Z 11008KT 30SM FEW068TCU FEW084 SCT110 BKN260 16/07 A2991 RMK TCU1AC2AC2CI1 TCU TR SLP133 DENSITY ALT 400FT

Charts

No Charts Available

Gates

No Gates Available

Runways

1 Available

Active ATC

Events -Coming Soon-

1 Events Coming Up Soon

Next event:
CYVQ Flyout